sensor_id;sensor_type;location;lat;lon;timestamp;pressure;altitude;pressure_sealevel;temperature;humidity
72438;BME280;60444;43.534;-5.674;2022-11-27T00:02:06;102245.44;;;13.65;96.98
72438;BME280;60444;43.534;-5.674;2022-11-27T00:04:31;102249.00;;;13.65;97.42
72438;BME280;60444;43.534;-5.674;2022-11-27T00:06:57;102258.81;;;13.69;96.30
72438;BME280;60444;43.534;-5.674;2022-11-27T00:09:22;102232.22;;;13.54;96.24
72438;BME280;60444;43.534;-5.674;2022-11-27T00:11:49;102238.47;;;13.56;95.90
72438;BME280;60444;43.534;-5.674;2022-11-27T00:14:15;102254.34;;;13.68;95.63
72438;BME280;60444;43.534;-5.674;2022-11-27T00:16:41;102229.41;;;13.57;97.25
72438;BME280;60444;43.534;-5.674;2022-11-27T00:19:08;102243.69;;;13.62;96.54
72438;BME280;60444;43.534;-5.674;2022-11-27T00:21:35;102246.53;;;13.59;96.39
72438;BME280;60444;43.534;-5.674;2022-11-27T00:24:03;102255.41;;;13.64;95.33
72438;BME280;60444;43.534;-5.674;2022-11-27T00:26:29;102260.78;;;13.66;97.29
72438;BME280;60444;43.534;-5.674;2022-11-27T00:28:55;102260.66;;;13.69;96.33
72438;BME280;60444;43.534;-5.674;2022-11-27T00:31:31;102256.09;;;13.69;95.64
72438;BME280;60444;43.534;-5.674;2022-11-27T00:34:00;102254.50;;;13.64;96.56
72438;BME280;60444;43.534;-5.674;2022-11-27T00:36:27;102253.50;;;13.66;95.75
72438;BME280;60444;43.534;-5.674;2022-11-27T00:38:53;102215.25;;;13.47;94.77
72438;BME280;60444;43.534;-5.674;2022-11-27T00:41:24;102248.94;;;13.67;95.49
72438;BME280;60444;43.534;-5.674;2022-11-27T00:43:50;102240.09;;;13.62;97.51
72438;BME280;60444;43.534;-5.674;2022-11-27T00:46:17;102247.31;;;13.63;94.43
72438;BME280;60444;43.534;-5.674;2022-11-27T00:48:43;102235.47;;;13.64;94.86
72438;BME280;60444;43.534;-5.674;2022-11-27T00:51:11;102212.38;;;13.52;98.38
72438;BME280;60444;43.534;-5.674;2022-11-27T00:53:37;102239.22;;;13.61;95.78
72438;BME280;60444;43.534;-5.674;2022-11-27T00:56:03;102224.88;;;13.56;93.85
72438;BME280;60444;43.534;-5.674;2022-11-27T00:58:29;102222.00;;;13.61;95.15
72438;BME280;60444;43.534;-5.674;2022-11-27T01:01:00;102219.34;;;13.59;93.61
72438;BME280;60444;43.534;-5.674;2022-11-27T01:03:26;102207.59;;;13.59;95.44
72438;BME280;60444;43.534;-5.674;2022-11-27T01:05:52;102190.16;;;13.41;93.55
72438;BME280;60444;43.534;-5.674;2022-11-27T01:08:18;102214.00;;;13.56;93.32
72438;BME280;60444;43.534;-5.674;2022-11-27T01:10:53;102204.25;;;13.50;93.58
72438;BME280;60444;43.534;-5.674;2022-11-27T01:13:21;102189.91;;;13.47;94.78
72438;BME280;60444;43.534;-5.674;2022-11-27T01:18:25;102178.34;;;13.42;95.71
72438;BME280;60444;43.534;-5.674;2022-11-27T01:20:51;102179.88;;;13.49;95.25
72438;BME280;60444;43.534;-5.674;2022-11-27T01:23:17;102163.28;;;13.33;93.93
72438;BME280;60444;43.534;-5.674;2022-11-27T01:25:43;102163.00;;;13.41;95.93
72438;BME280;60444;43.534;-5.674;2022-11-27T01:28:08;102150.63;;;13.32;97.16
72438;BME280;60444;43.534;-5.674;2022-11-27T01:30:36;102185.22;;;13.50;96.95
72438;BME280;60444;43.534;-5.674;2022-11-27T01:33:02;102184.38;;;13.50;96.68
72438;BME280;60444;43.534;-5.674;2022-11-27T01:35:28;102165.72;;;13.41;95.56
72438;BME280;60444;43.534;-5.674;2022-11-27T01:37:53;102188.03;;;13.49;94.28
72438;BME280;60444;43.534;-5.674;2022-11-27T01:40:19;102172.59;;;13.49;95.19
72438;BME280;60444;43.534;-5.674;2022-11-27T01:42:45;102170.88;;;13.47;93.62
72438;BME280;60444;43.534;-5.674;2022-11-27T01:45:14;102156.44;;;13.46;93.83
72438;BME280;60444;43.534;-5.674;2022-11-27T01:47:56;102177.03;;;13.52;94.80
72438;BME280;60444;43.534;-5.674;2022-11-27T01:50:33;102146.84;;;13.36;95.70
72438;BME280;60444;43.534;-5.674;2022-11-27T01:53:16;102170.78;;;13.50;94.11
72438;BME280;60444;43.534;-5.674;2022-11-27T01:55:47;102152.97;;;13.41;96.15
72438;BME280;60444;43.534;-5.674;2022-11-27T01:58:21;102141.34;;;13.38;96.21
72438;BME280;60444;43.534;-5.674;2022-11-27T02:00:48;102110.13;;;13.26;96.79
72438;BME280;60444;43.534;-5.674;2022-11-27T02:03:14;102128.84;;;13.34;96.22
72438;BME280;60444;43.534;-5.674;2022-11-27T02:05:40;102141.25;;;13.41;94.65
72438;BME280;60444;43.534;-5.674;2022-11-27T02:08:09;102143.63;;;13.48;94.95
72438;BME280;60444;43.534;-5.674;2022-11-27T02:13:26;102132.81;;;13.47;94.65
72438;BME280;60444;43.534;-5.674;2022-11-27T02:18:55;102134.69;;;13.46;95.31
72438;BME280;60444;43.534;-5.674;2022-11-27T02:29:33;102104.81;;;13.45;94.41
72438;BME280;60444;43.534;-5.674;2022-11-27T02:32:06;102092.31;;;13.41;93.98
72438;BME280;60444;43.534;-5.674;2022-11-27T02:34:47;102093.91;;;13.46;92.99
72438;BME280;60444;43.534;-5.674;2022-11-27T02:37:34;102067.28;;;13.33;93.27
72438;BME280;60444;43.534;-5.674;2022-11-27T02:40:06;102092.94;;;13.47;92.32
72438;BME280;60444;43.534;-5.674;2022-11-27T02:42:44;102098.31;;;13.49;92.59
72438;BME280;60444;43.534;-5.674;2022-11-27T02:45:16;102087.44;;;13.49;93.77
72438;BME280;60444;43.534;-5.674;2022-11-27T02:47:46;102099.22;;;13.49;94.41
72438;BME280;60444;43.534;-5.674;2022-11-27T02:50:19;102101.03;;;13.49;94.35
72438;BME280;60444;43.534;-5.674;2022-11-27T02:52:48;102095.72;;;13.46;93.30
72438;BME280;60444;43.534;-5.674;2022-11-27T02:55:19;102100.22;;;13.47;94.41
72438;BME280;60444;43.534;-5.674;2022-11-27T02:57:48;102084.25;;;13.38;95.17
72438;BME280;60444;43.534;-5.674;2022-11-27T03:00:15;102100.22;;;13.47;91.98
72438;BME280;60444;43.534;-5.674;2022-11-27T03:02:45;102090.16;;;13.49;92.69
72438;BME280;60444;43.534;-5.674;2022-11-27T03:05:17;102084.84;;;13.46;92.14
72438;BME280;60444;43.534;-5.674;2022-11-27T03:07:55;102074.81;;;13.48;93.13
72438;BME280;60444;43.534;-5.674;2022-11-27T03:10:42;102079.28;;;13.49;91.04
72438;BME280;60444;43.534;-5.674;2022-11-27T03:13:08;102065.19;;;13.39;93.00
72438;BME280;60444;43.534;-5.674;2022-11-27T03:15:43;102078.84;;;13.38;92.96
72438;BME280;60444;43.534;-5.674;2022-11-27T03:18:23;102077.63;;;13.45;92.71
72438;BME280;60444;43.534;-5.674;2022-11-27T03:21:10;102052.78;;;13.32;91.91
72438;BME280;60444;43.534;-5.674;2022-11-27T03:23:38;102065.25;;;13.38;93.29
72438;BME280;60444;43.534;-5.674;2022-11-27T03:26:04;102070.69;;;13.38;93.10
72438;BME280;60444;43.534;-5.674;2022-11-27T03:28:30;102066.13;;;13.38;92.99
72438;BME280;60444;43.534;-5.674;2022-11-27T03:30:57;102051.72;;;13.36;93.11
72438;BME280;60444;43.534;-5.674;2022-11-27T03:33:22;102063.25;;;13.43;91.90
72438;BME280;60444;43.534;-5.674;2022-11-27T03:35:48;102053.44;;;13.39;92.21
72438;BME280;60444;43.534;-5.674;2022-11-27T03:38:14;102050.72;;;13.39;93.06
72438;BME280;60444;43.534;-5.674;2022-11-27T03:41:04;102038.19;;;13.35;92.85
72438;BME280;60444;43.534;-5.674;2022-11-27T03:43:40;102050.59;;;13.42;93.28
72438;BME280;60444;43.534;-5.674;2022-11-27T03:46:16;102049.84;;;13.38;93.61
72438;BME280;60444;43.534;-5.674;2022-11-27T03:51:56;102023.91;;;13.30;93.59
72438;BME280;60444;43.534;-5.674;2022-11-27T03:56:47;102031.69;;;13.39;92.11
72438;BME280;60444;43.534;-5.674;2022-11-27T03:59:25;102010.50;;;13.25;92.06
72438;BME280;60444;43.534;-5.674;2022-11-27T04:01:52;102027.13;;;13.39;93.14
72438;BME280;60444;43.534;-5.674;2022-11-27T04:04:18;102026.34;;;13.37;91.30
72438;BME280;60444;43.534;-5.674;2022-11-27T04:06:44;102020.00;;;13.37;91.52
72438;BME280;60444;43.534;-5.674;2022-11-27T04:09:09;101995.16;;;13.24;90.04
72438;BME280;60444;43.534;-5.674;2022-11-27T04:11:35;102022.47;;;13.43;90.91
72438;BME280;60444;43.534;-5.674;2022-11-27T04:14:00;102019.75;;;13.43;92.35
72438;BME280;60444;43.534;-5.674;2022-11-27T04:16:26;102011.03;;;13.35;92.36
72438;BME280;60444;43.534;-5.674;2022-11-27T04:18:52;102020.75;;;13.40;93.44
72438;BME280;60444;43.534;-5.674;2022-11-27T04:21:17;101979.94;;;13.20;93.14
72438;BME280;60444;43.534;-5.674;2022-11-27T04:23:43;102004.63;;;13.36;91.96
72438;BME280;60444;43.534;-5.674;2022-11-27T04:26:09;101992.22;;;13.30;91.88
72438;BME280;60444;43.534;-5.674;2022-11-27T04:28:34;102003.75;;;13.35;92.23
72438;BME280;60444;43.534;-5.674;2022-11-27T04:31:00;101997.44;;;13.35;93.44
72438;BME280;60444;43.534;-5.674;2022-11-27T04:33:26;102006.41;;;13.37;92.43
72438;BME280;60444;43.534;-5.674;2022-11-27T04:35:52;101988.38;;;13.34;90.67
72438;BME280;60444;43.534;-5.674;2022-11-27T04:38:19;101993.72;;;13.37;92.15
72438;BME280;60444;43.534;-5.674;2022-11-27T04:40:44;101976.28;;;13.21;91.96
72438;BME280;60444;43.534;-5.674;2022-11-27T04:43:10;102001.91;;;13.36;93.06
72438;BME280;60444;43.534;-5.674;2022-11-27T04:45:36;101995.63;;;13.35;94.58
72438;BME280;60444;43.534;-5.674;2022-11-27T04:48:02;101990.28;;;13.32;92.35
72438;BME280;60444;43.534;-5.674;2022-11-27T04:50:28;101980.44;;;13.30;93.10
72438;BME280;60444;43.534;-5.674;2022-11-27T04:52:53;101994.72;;;13.35;94.73
72438;BME280;60444;43.534;-5.674;2022-11-27T04:55:19;101953.91;;;13.15;93.18
72438;BME280;60444;43.534;-5.674;2022-11-27T04:57:44;101990.34;;;13.31;94.02
72438;BME280;60444;43.534;-5.674;2022-11-27T05:00:10;101972.47;;;13.25;92.55
72438;BME280;60444;43.534;-5.674;2022-11-27T05:02:36;101986.63;;;13.33;94.42
72438;BME280;60444;43.534;-5.674;2022-11-27T05:05:02;101950.88;;;13.22;92.84
72438;BME280;60444;43.534;-5.674;2022-11-27T05:07:27;101944.84;;;13.14;94.69
72438;BME280;60444;43.534;-5.674;2022-11-27T05:09:53;101975.91;;;13.30;92.20
72438;BME280;60444;43.534;-5.674;2022-11-27T05:12:18;101976.09;;;13.26;91.77
72438;BME280;60444;43.534;-5.674;2022-11-27T05:14:44;101976.75;;;13.31;91.26
72438;BME280;60444;43.534;-5.674;2022-11-27T05:17:10;101956.16;;;13.25;92.99
72438;BME280;60444;43.534;-5.674;2022-11-27T05:19:36;101957.69;;;13.32;93.66
72438;BME280;60444;43.534;-5.674;2022-11-27T05:22:01;101937.34;;;13.21;92.43
72438;BME280;60444;43.534;-5.674;2022-11-27T05:24:27;101962.19;;;13.33;92.78
72438;BME280;60444;43.534;-5.674;2022-11-27T05:26:54;101937.22;;;13.24;92.57
72438;BME280;60444;43.534;-5.674;2022-11-27T05:29:20;101955.22;;;13.26;91.94
72438;BME280;60444;43.534;-5.674;2022-11-27T05:31:46;101963.38;;;13.26;91.62
72438;BME280;60444;43.534;-5.674;2022-11-27T05:34:12;101950.47;;;13.31;92.58
72438;BME280;60444;43.534;-5.674;2022-11-27T05:36:38;101953.28;;;13.30;92.33
72438;BME280;60444;43.534;-5.674;2022-11-27T05:39:05;101942.41;;;13.30;91.54
72438;BME280;60444;43.534;-5.674;2022-11-27T05:41:31;101920.38;;;13.16;92.94
72438;BME280;60444;43.534;-5.674;2022-11-27T05:44:00;101877.13;;;12.88;93.90
72438;BME280;60444;43.534;-5.674;2022-11-27T05:46:26;101942.66;;;13.24;90.46
72438;BME280;60444;43.534;-5.674;2022-11-27T05:48:51;101931.78;;;13.24;91.54
72438;BME280;60444;43.534;-5.674;2022-11-27T05:51:17;101925.41;;;13.25;93.60
72438;BME280;60444;43.534;-5.674;2022-11-27T05:53:43;101918.50;;;13.16;93.06
72438;BME280;60444;43.534;-5.674;2022-11-27T05:56:11;101909.44;;;13.17;91.21
72438;BME280;60444;43.534;-5.674;2022-11-27T05:58:38;101906.50;;;13.22;91.95
72438;BME280;60444;43.534;-5.674;2022-11-27T06:01:04;101908.22;;;13.24;91.08
72438;BME280;60444;43.534;-5.674;2022-11-27T06:03:30;101899.56;;;13.15;91.06
72438;BME280;60444;43.534;-5.674;2022-11-27T06:05:56;101920.78;;;13.27;91.58
72438;BME280;60444;43.534;-5.674;2022-11-27T06:08:22;101902.97;;;13.20;92.28
72438;BME280;60444;43.534;-5.674;2022-11-27T06:10:48;101919.03;;;13.26;92.16
72438;BME280;60444;43.534;-5.674;2022-11-27T06:13:14;101904.84;;;13.18;92.39
72438;BME280;60444;43.534;-5.674;2022-11-27T06:15:40;101912.91;;;13.21;92.50
72438;BME280;60444;43.534;-5.674;2022-11-27T06:18:07;101918.13;;;13.25;93.06
72438;BME280;60444;43.534;-5.674;2022-11-27T06:20:32;101926.56;;;13.19;90.39
72438;BME280;60444;43.534;-5.674;2022-11-27T06:22:58;101907.97;;;13.09;91.22
72438;BME280;60444;43.534;-5.674;2022-11-27T06:25:24;101923.56;;;13.04;86.93
72438;BME280;60444;43.534;-5.674;2022-11-27T06:27:50;101929.38;;;13.16;90.49
72438;BME280;60444;43.534;-5.674;2022-11-27T06:30:16;101939.63;;;13.10;87.96
72438;BME280;60444;43.534;-5.674;2022-11-27T06:32:43;101934.06;;;13.13;90.04
72438;BME280;60444;43.534;-5.674;2022-11-27T06:35:09;101904.66;;;13.01;93.19
72438;BME280;60444;43.534;-5.674;2022-11-27T06:37:35;101912.59;;;13.07;90.43
72438;BME280;60444;43.534;-5.674;2022-11-27T06:40:01;101917.91;;;13.10;93.28
72438;BME280;60444;43.534;-5.674;2022-11-27T06:42:28;101895.69;;;12.99;93.48
72438;BME280;60444;43.534;-5.674;2022-11-27T06:44:54;101935.72;;;13.17;93.59
72438;BME280;60444;43.534;-5.674;2022-11-27T06:47:20;101928.69;;;13.11;91.38
72438;BME280;60444;43.534;-5.674;2022-11-27T06:49:45;101920.53;;;13.11;92.71
72438;BME280;60444;43.534;-5.674;2022-11-27T06:52:12;101901.84;;;13.04;93.82
72438;BME280;60444;43.534;-5.674;2022-11-27T06:54:37;101920.22;;;13.19;92.24
72438;BME280;60444;43.534;-5.674;2022-11-27T06:57:03;101927.38;;;13.21;91.41
72438;BME280;60444;43.534;-5.674;2022-11-27T06:59:28;101900.84;;;13.06;90.74
72438;BME280;60444;43.534;-5.674;2022-11-27T07:01:54;101896.41;;;13.04;91.81
72438;BME280;60444;43.534;-5.674;2022-11-27T07:04:20;101914.50;;;13.05;91.47
72438;BME280;60444;43.534;-5.674;2022-11-27T07:06:45;101910.06;;;13.02;91.83
72438;BME280;60444;43.534;-5.674;2022-11-27T07:09:11;101935.72;;;13.17;91.77
72438;BME280;60444;43.534;-5.674;2022-11-27T07:11:37;101945.63;;;13.18;90.54
72438;BME280;60444;43.534;-5.674;2022-11-27T07:14:03;101957.44;;;13.17;90.00
72438;BME280;60444;43.534;-5.674;2022-11-27T07:16:31;101952.69;;;13.22;91.30
72438;BME280;60444;43.534;-5.674;2022-11-27T07:18:59;101948.47;;;13.15;89.38
72438;BME280;60444;43.534;-5.674;2022-11-27T07:21:25;101970.78;;;13.23;91.27
72438;BME280;60444;43.534;-5.674;2022-11-27T07:23:52;101975.31;;;13.22;89.04
72438;BME280;60444;43.534;-5.674;2022-11-27T07:26:20;101977.03;;;13.25;90.62
72438;BME280;60444;43.534;-5.674;2022-11-27T07:28:46;101967.16;;;13.22;92.50
72438;BME280;60444;43.534;-5.674;2022-11-27T07:31:15;101959.19;;;13.18;90.67
72438;BME280;60444;43.534;-5.674;2022-11-27T07:33:41;101972.59;;;13.22;92.33
72438;BME280;60444;43.534;-5.674;2022-11-27T07:36:11;101971.84;;;13.19;89.32
72438;BME280;60444;43.534;-5.674;2022-11-27T07:38:37;101946.81;;;13.11;90.13
72438;BME280;60444;43.534;-5.674;2022-11-27T07:41:04;101948.59;;;13.12;89.61
72438;BME280;60444;43.534;-5.674;2022-11-27T07:43:31;101967.41;;;13.16;89.78
72438;BME280;60444;43.534;-5.674;2022-11-27T07:45:57;101954.97;;;13.11;91.64
72438;BME280;60444;43.534;-5.674;2022-11-27T07:48:22;101950.81;;;13.02;91.90
72438;BME280;60444;43.534;-5.674;2022-11-27T07:50:48;101945.53;;;12.98;90.60
72438;BME280;60444;43.534;-5.674;2022-11-27T07:53:13;101941.16;;;12.94;89.59
72438;BME280;60444;43.534;-5.674;2022-11-27T07:55:40;101965.00;;;13.09;93.03
72438;BME280;60444;43.534;-5.674;2022-11-27T07:58:07;101970.44;;;13.09;90.66
72438;BME280;60444;43.534;-5.674;2022-11-27T08:00:33;101959.50;;;12.89;90.80
72438;BME280;60444;43.534;-5.674;2022-11-27T08:02:59;101984.97;;;13.08;91.45
72438;BME280;60444;43.534;-5.674;2022-11-27T08:05:25;101971.59;;;13.03;94.24
72438;BME280;60444;43.534;-5.674;2022-11-27T08:07:51;101949.50;;;12.89;91.20
72438;BME280;60444;43.534;-5.674;2022-11-27T08:10:17;101959.97;;;12.98;92.05
72438;BME280;60444;43.534;-5.674;2022-11-27T08:12:42;101949.56;;;12.88;94.17
72438;BME280;60444;43.534;-5.674;2022-11-27T08:15:08;101965.47;;;12.97;93.48
72438;BME280;60444;43.534;-5.674;2022-11-27T08:17:34;101963.47;;;13.02;93.65
72438;BME280;60444;43.534;-5.674;2022-11-27T08:20:00;101977.59;;;13.11;96.33
72438;BME280;60444;43.534;-5.674;2022-11-27T08:22:25;101975.88;;;13.09;94.92
72438;BME280;60444;43.534;-5.674;2022-11-27T08:24:51;101980.50;;;13.07;93.59
72438;BME280;60444;43.534;-5.674;2022-11-27T08:27:17;101970.56;;;13.06;93.68
72438;BME280;60444;43.534;-5.674;2022-11-27T08:29:42;101969.81;;;13.02;91.62
72438;BME280;60444;43.534;-5.674;2022-11-27T08:32:08;101960.03;;;12.97;91.66
72438;BME280;60444;43.534;-5.674;2022-11-27T08:34:35;101981.28;;;13.10;93.03
72438;BME280;60444;43.534;-5.674;2022-11-27T08:37:02;101966.09;;;13.05;91.29
72438;BME280;60444;43.534;-5.674;2022-11-27T08:39:27;101969.50;;;13.10;93.25
72438;BME280;60444;43.534;-5.674;2022-11-27T08:41:53;101984.69;;;13.15;91.73
72438;BME280;60444;43.534;-5.674;2022-11-27T08:44:19;101976.91;;;13.06;91.77
72438;BME280;60444;43.534;-5.674;2022-11-27T08:46:44;101954.41;;;13.03;94.40
72438;BME280;60444;43.534;-5.674;2022-11-27T08:49:10;101979.94;;;13.20;92.98
72438;BME280;60444;43.534;-5.674;2022-11-27T08:51:35;101972.59;;;13.22;91.89
72438;BME280;60444;43.534;-5.674;2022-11-27T08:54:01;101973.69;;;13.18;93.97
72438;BME280;60444;43.534;-5.674;2022-11-27T08:56:29;101950.63;;;13.07;93.52
72438;BME280;60444;43.534;-5.674;2022-11-27T08:58:55;101956.47;;;13.18;91.13
72438;BME280;60444;43.534;-5.674;2022-11-27T09:01:29;101975.09;;;13.28;90.38
72438;BME280;60444;43.534;-5.674;2022-11-27T09:03:55;101949.97;;;13.22;90.82
72438;BME280;60444;43.534;-5.674;2022-11-27T09:06:24;101961.44;;;13.30;92.76
72438;BME280;60444;43.534;-5.674;2022-11-27T09:08:50;101937.66;;;13.13;91.70
72438;BME280;60444;43.534;-5.674;2022-11-27T09:11:18;101936.38;;;13.22;91.71
72438;BME280;60444;43.534;-5.674;2022-11-27T09:13:44;101951.25;;;13.35;91.20
72438;BME280;60444;43.534;-5.674;2022-11-27T09:16:14;101941.59;;;13.28;90.92
72438;BME280;60444;43.534;-5.674;2022-11-27T09:18:40;101955.69;;;13.37;90.92
72438;BME280;60444;43.534;-5.674;2022-11-27T09:21:07;101953.75;;;13.39;90.91
72438;BME280;60444;43.534;-5.674;2022-11-27T09:23:34;101955.38;;;13.43;89.99
72438;BME280;60444;43.534;-5.674;2022-11-27T09:26:03;101947.25;;;13.43;90.64
72438;BME280;60444;43.534;-5.674;2022-11-27T09:28:30;101906.94;;;13.33;90.02
72438;BME280;60444;43.534;-5.674;2022-11-27T09:30:59;101937.19;;;13.45;90.38
72438;BME280;60444;43.534;-5.674;2022-11-27T09:33:26;101934.47;;;13.45;89.10
72438;BME280;60444;43.534;-5.674;2022-11-27T09:35:52;101904.06;;;13.36;91.00
72438;BME280;60444;43.534;-5.674;2022-11-27T09:38:19;101919.25;;;13.41;90.13
72438;BME280;60444;43.534;-5.674;2022-11-27T09:40:52;101936.03;;;13.51;90.46
72438;BME280;60444;43.534;-5.674;2022-11-27T09:43:31;101906.69;;;13.39;90.57
72438;BME280;60444;43.534;-5.674;2022-11-27T09:46:03;101904.72;;;13.42;90.18
72438;BME280;60444;43.534;-5.674;2022-11-27T09:48:37;101942.16;;;13.56;89.19
72438;BME280;60444;43.534;-5.674;2022-11-27T09:51:26;101942.16;;;13.56;91.03
72438;BME280;60444;43.534;-5.674;2022-11-27T09:54:05;101952.28;;;13.52;88.31
72438;BME280;60444;43.534;-5.674;2022-11-27T09:56:34;101957.53;;;13.57;91.83
72438;BME280;60444;43.534;-5.674;2022-11-27T09:59:01;101949.50;;;13.54;91.47
72438;BME280;60444;43.534;-5.674;2022-11-27T10:01:30;101979.91;;;13.64;89.55
72438;BME280;60444;43.534;-5.674;2022-11-27T10:03:56;101960.03;;;13.62;90.17
72438;BME280;60444;43.534;-5.674;2022-11-27T10:11:34;101946.88;;;13.73;90.34
72438;BME280;60444;43.534;-5.674;2022-11-27T10:16:56;101937.56;;;13.78;91.41
72438;BME280;60444;43.534;-5.674;2022-11-27T10:27:48;101938.38;;;13.80;93.13
72438;BME280;60444;43.534;-5.674;2022-11-27T10:30:18;101955.09;;;13.91;89.09
72438;BME280;60444;43.534;-5.674;2022-11-27T10:32:47;101956.59;;;13.98;92.13
72438;BME280;60444;43.534;-5.674;2022-11-27T10:35:17;101954.69;;;14.00;91.53
72438;BME280;60444;43.534;-5.674;2022-11-27T10:38:10;101961.72;;;14.06;92.26
72438;BME280;60444;43.534;-5.674;2022-11-27T10:40:54;101938.06;;;14.06;92.21
72438;BME280;60444;43.534;-5.674;2022-11-27T10:43:24;101941.41;;;14.13;93.38
72438;BME280;60444;43.534;-5.674;2022-11-27T10:48:33;101902.13;;;14.00;93.74
72438;BME280;60444;43.534;-5.674;2022-11-27T10:50:59;101931.22;;;14.18;94.91
72438;BME280;60444;43.534;-5.674;2022-11-27T10:53:32;101922.31;;;14.14;93.86
72438;BME280;60444;43.534;-5.674;2022-11-27T10:58:40;101929.38;;;14.18;93.01
72438;BME280;60444;43.534;-5.674;2022-11-27T11:01:10;101923.94;;;14.18;90.47
72438;BME280;60444;43.534;-5.674;2022-11-27T11:03:36;101921.22;;;14.18;86.35
72438;BME280;60444;43.534;-5.674;2022-11-27T11:08:39;101928.34;;;14.21;81.17
72438;BME280;60444;43.534;-5.674;2022-11-27T11:11:06;101921.81;;;14.25;94.07
72438;BME280;60444;43.534;-5.674;2022-11-27T11:18:53;101958.50;;;14.36;84.35
72438;BME280;60444;43.534;-5.674;2022-11-27T11:21:28;101949.97;;;14.44;90.38
72438;BME280;60444;43.534;-5.674;2022-11-27T11:24:03;101946.44;;;14.42;85.78
72438;BME280;60444;43.534;-5.674;2022-11-27T11:26:38;101912.50;;;14.30;85.36
72438;BME280;60444;43.534;-5.674;2022-11-27T11:31:48;101909.19;;;14.42;89.80
72438;BME280;60444;43.534;-5.674;2022-11-27T11:34:22;101924.88;;;14.56;91.63
72438;BME280;60444;43.534;-5.674;2022-11-27T11:36:59;101902.28;;;14.54;89.08
72438;BME280;60444;43.534;-5.674;2022-11-27T11:39:33;101886.19;;;14.49;91.34
72438;BME280;60444;43.534;-5.674;2022-11-27T11:42:24;101877.25;;;14.46;87.82
72438;BME280;60444;43.534;-5.674;2022-11-27T11:44:54;101903.59;;;14.64;88.62
72438;BME280;60444;43.534;-5.674;2022-11-27T11:47:22;101846.75;;;14.39;92.71
72438;BME280;60444;43.534;-5.674;2022-11-27T11:49:49;101877.59;;;14.59;92.47
72438;BME280;60444;43.534;-5.674;2022-11-27T11:52:28;101877.41;;;14.62;88.74
72438;BME280;60444;43.534;-5.674;2022-11-27T11:55:13;101888.69;;;14.73;90.69
72438;BME280;60444;43.534;-5.674;2022-11-27T11:58:00;101878.66;;;14.73;87.73
72438;BME280;60444;43.534;-5.674;2022-11-27T12:00:40;101865.28;;;14.69;89.15
72438;BME280;60444;43.534;-5.674;2022-11-27T12:03:42;101868.50;;;14.77;93.19
72438;BME280;60444;43.534;-5.674;2022-11-27T12:08:58;101844.38;;;14.69;86.63
72438;BME280;60444;43.534;-5.674;2022-11-27T12:42:34;101814.22;;;15.08;89.30
72438;BME280;60444;43.534;-5.674;2022-11-27T12:45:31;101835.31;;;15.21;88.58
72438;BME280;60444;43.534;-5.674;2022-11-27T12:48:13;101814.81;;;15.14;89.80
72438;BME280;60444;43.534;-5.674;2022-11-27T12:50:48;101827.78;;;15.26;89.50
72438;BME280;60444;43.534;-5.674;2022-11-27T12:53:33;101807.34;;;15.18;89.27
72438;BME280;60444;43.534;-5.674;2022-11-27T12:59:14;101808.44;;;15.31;92.47
72438;BME280;60444;43.534;-5.674;2022-11-27T13:02:00;101801.25;;;15.30;92.61
72438;BME280;60444;43.534;-5.674;2022-11-27T13:04:47;101808.69;;;15.26;91.87
72438;BME280;60444;43.534;-5.674;2022-11-27T13:09:47;101805.97;;;15.26;94.46
72438;BME280;60444;43.534;-5.674;2022-11-27T13:12:38;101791.53;;;15.24;97.14
72438;BME280;60444;43.534;-5.674;2022-11-27T13:15:18;101791.63;;;15.23;96.55
72438;BME280;60444;43.534;-5.674;2022-11-27T13:17:44;101786.66;;;15.14;95.50
72438;BME280;60444;43.534;-5.674;2022-11-27T13:20:17;101786.66;;;15.14;94.79
72438;BME280;60444;43.534;-5.674;2022-11-27T13:22:45;101793.72;;;15.18;94.60
72438;BME280;60444;43.534;-5.674;2022-11-27T13:25:13;101788.41;;;15.15;97.49
72438;BME280;60444;43.534;-5.674;2022-11-27T13:27:45;101780.97;;;15.01;92.83
72438;BME280;60444;43.534;-5.674;2022-11-27T13:30:23;101796.84;;;15.10;91.14
72438;BME280;60444;43.534;-5.674;2022-11-27T13:32:53;101784.88;;;15.13;95.58
72438;BME280;60444;43.534;-5.674;2022-11-27T13:35:35;101764.53;;;15.03;96.38
72438;BME280;60444;43.534;-5.674;2022-11-27T13:38:18;101776.25;;;15.05;98.73
72438;BME280;60444;43.534;-5.674;2022-11-27T13:40:48;101769.91;;;15.04;97.23
72438;BME280;60444;43.534;-5.674;2022-11-27T13:43:49;101766.22;;;15.05;98.89
72438;BME280;60444;43.534;-5.674;2022-11-27T13:46:25;101763.91;;;14.98;95.96
72438;BME280;60444;43.534;-5.674;2022-11-27T13:49:01;101763.81;;;14.99;94.25
72438;BME280;60444;43.534;-5.674;2022-11-27T13:51:32;101761.97;;;15.00;94.46
72438;BME280;60444;43.534;-5.674;2022-11-27T13:54:14;101746.25;;;14.88;96.34
72438;BME280;60444;43.534;-5.674;2022-11-27T13:56:40;101763.00;;;14.97;93.52
72438;BME280;60444;43.534;-5.674;2022-11-27T13:59:20;101749.13;;;14.85;94.88
72438;BME280;60444;43.534;-5.674;2022-11-27T14:02:12;101771.00;;;15.00;96.81
72438;BME280;60444;43.534;-5.674;2022-11-27T14:04:47;101760.53;;;14.93;100.00
72438;BME280;60444;43.534;-5.674;2022-11-27T14:07:14;101777.59;;;14.96;95.12
72438;BME280;60444;43.534;-5.674;2022-11-27T14:09:50;101783.06;;;14.96;95.29
72438;BME280;60444;43.534;-5.674;2022-11-27T14:12:23;101785.78;;;14.96;94.04
72438;BME280;60444;43.534;-5.674;2022-11-27T14:17:44;101796.72;;;14.95;95.15
72438;BME280;60444;43.534;-5.674;2022-11-27T14:22:51;101807.78;;;14.92;100.00
72438;BME280;60444;43.534;-5.674;2022-11-27T14:25:29;101807.78;;;14.92;100.00
72438;BME280;60444;43.534;-5.674;2022-11-27T14:28:20;101826.88;;;14.92;98.00
72438;BME280;60444;43.534;-5.674;2022-11-27T14:30:54;101819.66;;;14.91;97.46
72438;BME280;60444;43.534;-5.674;2022-11-27T14:33:28;101831.75;;;14.85;96.65